createdAt,value
2019-01-24T00:01:36.159Z,26.00
2019-01-24T00:04:05.860Z,25.90
2019-01-24T00:06:35.284Z,27.60
2019-01-24T00:09:08.100Z,26.30
2019-01-24T00:11:37.570Z,25.60
2019-01-24T00:14:07.041Z,25.67
2019-01-24T00:16:36.485Z,26.60
2019-01-24T00:19:05.951Z,28.63
2019-01-24T00:21:35.389Z,26.17
2019-01-24T00:24:04.886Z,26.13
2019-01-24T00:26:34.321Z,25.67
2019-01-24T00:29:03.731Z,26.17
2019-01-24T00:31:33.105Z,26.20
2019-01-24T00:34:02.855Z,26.27
2019-01-24T00:36:32.305Z,25.77
2019-01-24T00:39:01.684Z,26.93
2019-01-24T00:41:31.066Z,25.47
2019-01-24T00:44:00.524Z,28.03
2019-01-24T00:46:29.987Z,27.47
2019-01-24T00:48:59.785Z,26.93
2019-01-24T00:51:29.248Z,27.27
2019-01-24T00:53:58.703Z,26.93
2019-01-24T00:56:28.076Z,27.30
2019-01-24T00:58:57.809Z,27.73
2019-01-24T01:01:27.267Z,28.13
2019-01-24T01:03:56.619Z,26.57
2019-01-24T01:06:26.000Z,26.63
2019-01-24T01:08:55.377Z,26.83
2019-01-24T01:11:25.221Z,27.17
2019-01-24T01:13:54.596Z,28.57
2019-01-24T01:16:24.052Z,27.00
2019-01-24T01:18:53.748Z,26.10
2019-01-24T01:21:23.209Z,25.77
2019-01-24T01:23:52.841Z,24.97
2019-01-24T01:26:22.224Z,25.77
2019-01-24T01:28:51.733Z,26.87
2019-01-24T01:31:21.193Z,27.13
2019-01-24T01:33:50.584Z,26.83
2019-01-24T01:36:19.941Z,26.30
2019-01-24T01:38:49.340Z,26.57
2019-01-24T01:41:18.777Z,28.73
2019-01-24T01:43:48.171Z,28.37
2019-01-24T01:46:17.897Z,27.47
2019-01-24T01:48:47.360Z,26.80
2019-01-24T01:51:16.806Z,27.93
2019-01-24T01:53:46.269Z,26.90
2019-01-24T01:56:15.708Z,27.20
2019-01-24T01:58:45.092Z,26.37
2019-01-24T02:01:14.534Z,26.37
2019-01-24T02:03:43.980Z,27.93
2019-01-24T02:06:13.478Z,26.60
2019-01-24T02:08:42.896Z,26.77
2019-01-24T02:11:12.332Z,28.33
2019-01-24T02:13:41.721Z,26.10
2019-01-24T02:16:11.088Z,27.97
2019-01-24T02:18:40.485Z,26.53
2019-01-24T02:21:09.853Z,26.83
2019-01-24T02:23:39.318Z,27.37
2019-01-24T02:26:08.877Z,28.63
2019-01-24T02:28:38.345Z,27.93
2019-01-24T02:31:07.713Z,27.83
2019-01-24T02:33:37.130Z,28.43
2019-01-24T02:36:06.516Z,28.23
2019-01-24T02:38:35.901Z,28.60
2019-01-24T02:41:05.272Z,27.83
2019-01-24T02:43:35.124Z,26.53
2019-01-24T02:46:05.005Z,28.40
2019-01-24T02:48:34.394Z,26.03
2019-01-24T02:51:03.767Z,28.00
2019-01-24T02:53:33.231Z,27.17
2019-01-24T02:56:02.625Z,29.27
2019-01-24T02:58:31.992Z,26.93
2019-01-24T03:01:01.564Z,26.47
2019-01-24T03:03:31.342Z,27.00
2019-01-24T03:06:00.797Z,27.43
2019-01-24T03:08:30.153Z,27.70
2019-01-24T03:10:59.541Z,29.07
2019-01-24T03:13:29.006Z,26.83
2019-01-24T03:15:58.610Z,26.63
2019-01-24T03:18:28.405Z,28.10
2019-01-24T03:20:58.184Z,27.03
2019-01-24T03:23:27.614Z,28.87
2019-01-24T03:25:57.078Z,27.33
2019-01-24T03:28:26.439Z,28.43
2019-01-24T03:30:55.905Z,28.30
2019-01-24T03:33:25.312Z,25.63
2019-01-24T03:35:55.018Z,27.70
2019-01-24T03:38:24.457Z,27.60
2019-01-24T03:40:54.211Z,27.73
2019-01-24T03:43:23.587Z,28.00
2019-01-24T03:45:53.275Z,29.20
2019-01-24T03:48:22.707Z,27.83
2019-01-24T03:50:52.156Z,27.50
2019-01-24T03:53:21.601Z,29.90
2019-01-24T03:55:51.357Z,28.13
2019-01-24T03:58:21.078Z,28.37
2019-01-24T04:00:50.570Z,26.67
2019-01-24T04:03:19.960Z,29.50
2019-01-24T04:05:49.695Z,30.57
2019-01-24T04:08:19.152Z,29.33
2019-01-24T04:10:48.512Z,28.63
2019-01-24T04:13:17.893Z,29.83
2019-01-24T04:15:47.522Z,30.07
2019-01-24T04:18:17.040Z,28.87
2019-01-24T04:20:46.828Z,28.60
2019-01-24T04:23:16.293Z,30.20
2019-01-24T04:25:45.662Z,28.37
2019-01-24T04:28:15.356Z,27.30
2019-01-24T04:30:44.789Z,28.93
2019-01-24T04:33:14.259Z,28.90
2019-01-24T04:35:44.189Z,29.40
2019-01-24T04:38:14.188Z,29.30
2019-01-24T04:40:43.637Z,29.07
2019-01-24T04:43:13.001Z,29.47
2019-01-24T04:45:42.557Z,30.30
2019-01-24T04:48:12.013Z,28.43
2019-01-24T04:50:41.396Z,26.97
2019-01-24T04:53:10.765Z,28.10
2019-01-24T04:55:40.518Z,28.73
2019-01-24T04:58:09.944Z,29.23
2019-01-24T05:00:39.337Z,29.83
2019-01-24T05:03:09.058Z,29.47
2019-01-24T05:05:39.153Z,27.70
2019-01-24T05:08:08.594Z,29.10
2019-01-24T05:10:38.059Z,29.53
2019-01-24T05:13:07.492Z,29.93
2019-01-24T05:15:37.302Z,29.97
2019-01-24T05:18:06.936Z,29.67
2019-01-24T05:20:36.398Z,27.23
2019-01-24T05:23:05.861Z,28.97
2019-01-24T05:25:35.256Z,28.50
2019-01-24T05:28:04.692Z,28.53
2019-01-24T05:30:34.161Z,28.80
2019-01-24T05:33:03.611Z,28.47
2019-01-24T05:35:34.884Z,30.23
2019-01-24T05:38:04.701Z,28.90
2019-01-24T05:40:34.131Z,27.63
2019-01-24T05:43:03.897Z,29.63
2019-01-24T05:45:33.866Z,27.87
2019-01-24T05:48:03.255Z,29.90
2019-01-24T05:50:32.700Z,30.23
2019-01-24T05:53:04.037Z,30.23
2019-01-24T05:55:33.476Z,30.30
2019-01-24T05:58:02.962Z,29.73
2019-01-24T06:00:51.357Z,31.40
2019-01-24T06:03:21.220Z,31.40
2019-01-24T06:05:50.594Z,31.17
2019-01-24T06:08:20.051Z,30.23
2019-01-24T06:10:49.849Z,32.10
2019-01-24T06:13:19.323Z,31.77
2019-01-24T06:15:48.885Z,29.93
2019-01-24T06:18:18.254Z,29.97
2019-01-24T06:20:47.804Z,31.23
2019-01-24T06:23:17.184Z,28.73
2019-01-24T06:25:46.976Z,29.33
2019-01-24T06:28:16.328Z,28.53
2019-01-24T06:30:45.739Z,28.77
2019-01-24T06:33:15.102Z,30.57
2019-01-24T06:35:48.718Z,32.30
2019-01-24T06:38:15.649Z,29.17
2019-01-24T06:40:45.125Z,28.80
2019-01-24T06:43:14.849Z,31.33
2019-01-24T06:45:44.665Z,31.03
2019-01-24T06:48:14.032Z,32.57
2019-01-24T06:50:43.717Z,30.23
2019-01-24T06:53:13.569Z,28.87
2019-01-24T06:55:43.008Z,29.67
2019-01-24T06:58:12.369Z,32.50
2019-01-24T07:00:42.208Z,30.70
2019-01-24T07:03:11.639Z,31.83
2019-01-24T07:05:41.088Z,30.00
2019-01-24T07:08:10.932Z,29.80
2019-01-24T07:10:40.492Z,29.47
2019-01-24T07:13:09.948Z,30.10
2019-01-24T07:15:39.344Z,28.53
2019-01-24T07:18:09.156Z,31.03
2019-01-24T07:20:38.610Z,30.83
2019-01-24T07:23:08.373Z,32.13
2019-01-24T07:25:37.738Z,29.07
2019-01-24T07:28:07.206Z,29.40
2019-01-24T07:30:36.704Z,31.93
2019-01-24T07:33:06.201Z,31.40
2019-01-24T07:35:35.582Z,31.60
2019-01-24T07:38:06.313Z,30.63
2019-01-24T07:40:35.882Z,29.53
2019-01-24T07:43:05.749Z,32.77
2019-01-24T07:45:37.700Z,31.33
2019-01-24T07:48:07.401Z,32.23
2019-01-24T07:50:36.859Z,30.50
2019-01-24T07:53:07.948Z,30.53
2019-01-24T07:55:37.505Z,29.83
2019-01-24T07:58:07.720Z,29.97
2019-01-24T08:00:37.208Z,30.30
2019-01-24T08:03:06.708Z,30.57
2019-01-24T08:05:37.859Z,31.33
2019-01-24T08:08:07.830Z,32.00
2019-01-24T08:10:37.581Z,32.93
2019-01-24T08:13:07.119Z,35.87
2019-01-24T08:15:36.597Z,38.17
2019-01-24T08:18:06.281Z,34.43
2019-01-24T08:20:35.888Z,32.33
2019-01-24T08:23:05.357Z,32.50
2019-01-24T08:25:35.119Z,32.17
2019-01-24T08:28:04.658Z,30.33
2019-01-24T08:30:34.809Z,31.63
2019-01-24T08:33:04.482Z,30.57
2019-01-24T08:35:33.951Z,32.03
2019-01-24T08:38:03.506Z,34.10
2019-01-24T08:40:33.281Z,32.67
2019-01-24T08:43:02.719Z,32.83
2019-01-24T08:45:32.372Z,31.10
2019-01-24T08:48:01.735Z,30.90
2019-01-24T08:50:31.188Z,31.90
2019-01-24T08:53:00.845Z,31.83
2019-01-24T08:55:41.544Z,32.70
2019-01-24T08:58:12.661Z,31.93
2019-01-24T09:00:42.245Z,31.73
2019-01-24T09:03:11.787Z,31.77
2019-01-24T09:05:41.252Z,30.93
2019-01-24T09:08:10.950Z,31.80
2019-01-24T09:10:41.232Z,30.97
2019-01-24T09:13:10.670Z,31.87
2019-01-24T09:15:40.413Z,32.03
2019-01-24T09:18:10.554Z,31.70
2019-01-24T09:20:40.317Z,31.60
2019-01-24T09:23:09.878Z,31.17
2019-01-24T09:25:39.347Z,31.13
2019-01-24T09:28:14.786Z,30.13
2019-01-24T09:30:40.288Z,31.17
2019-01-24T09:33:09.749Z,32.53
2019-01-24T09:35:40.105Z,31.23
2019-01-24T09:38:09.833Z,31.43
2019-01-24T09:40:39.638Z,32.47
2019-01-24T09:43:09.554Z,33.33
2019-01-24T09:45:39.370Z,30.63
2019-01-24T09:48:09.472Z,32.07
2019-01-24T09:50:38.927Z,33.17
2019-01-24T09:53:08.314Z,31.13
2019-01-24T09:55:38.119Z,31.37
2019-01-24T09:58:07.502Z,31.27
2019-01-24T10:00:37.924Z,31.30
2019-01-24T10:03:08.258Z,30.07
2019-01-24T10:05:37.790Z,29.77
2019-01-24T10:08:07.982Z,30.97
2019-01-24T10:10:37.437Z,28.40
2019-01-24T10:13:07.168Z,28.97
2019-01-24T10:15:36.622Z,27.43
2019-01-24T10:18:06.208Z,27.10
2019-01-24T10:20:35.572Z,28.10
2019-01-24T10:23:05.108Z,29.00
2019-01-24T10:25:38.997Z,27.10
2019-01-24T10:28:09.160Z,28.87
2019-01-24T10:30:42.556Z,27.23
2019-01-24T10:33:09.785Z,28.43
2019-01-24T10:35:39.164Z,28.70
2019-01-24T10:38:08.673Z,27.80
2019-01-24T10:40:38.048Z,28.97
2019-01-24T10:43:08.989Z,29.30
2019-01-24T10:45:38.448Z,29.33
2019-01-24T10:48:08.098Z,30.87
2019-01-24T10:50:37.564Z,30.67
2019-01-24T10:53:07.025Z,31.57
2019-01-24T10:55:36.488Z,32.73
2019-01-24T10:58:07.002Z,29.40
2019-01-24T11:00:39.481Z,27.27
2019-01-24T11:03:11.328Z,27.67
2019-01-24T11:05:40.828Z,28.07
2019-01-24T11:08:10.195Z,28.27
2019-01-24T11:10:39.588Z,37.33
2019-01-24T11:13:09.020Z,34.37
2019-01-24T11:15:38.409Z,32.70
2019-01-24T11:18:08.620Z,30.93
2019-01-24T11:20:38.078Z,30.87
2019-01-24T11:23:07.621Z,31.83
2019-01-24T11:25:37.061Z,32.27
2019-01-24T11:28:06.433Z,31.67
2019-01-24T11:30:36.749Z,32.43
2019-01-24T11:33:07.119Z,30.63
2019-01-24T11:35:37.169Z,31.63
2019-01-24T11:38:07.223Z,36.17
2019-01-24T11:40:36.714Z,32.33
2019-01-24T11:43:07.160Z,33.13
2019-01-24T11:45:39.179Z,31.90
2019-01-24T11:48:08.629Z,32.37
2019-01-24T11:50:38.011Z,33.10
2019-01-24T11:53:07.485Z,34.20
2019-01-24T11:55:36.937Z,32.97
2019-01-24T11:58:07.470Z,37.83
2019-01-24T12:00:41.653Z,33.87
2019-01-24T12:03:11.064Z,32.57
2019-01-24T12:05:40.518Z,34.90
2019-01-24T12:08:10.076Z,33.17
2019-01-24T12:10:39.456Z,32.97
2019-01-24T12:13:09.019Z,34.40
2019-01-24T12:15:38.498Z,33.20
2019-01-24T12:18:08.026Z,33.00
2019-01-24T12:20:37.380Z,34.77
2019-01-24T12:23:06.819Z,35.77
2019-01-24T12:25:36.213Z,36.33
2019-01-24T12:28:05.786Z,35.17
2019-01-24T12:30:36.303Z,35.37
2019-01-24T12:33:06.949Z,33.30
2019-01-24T12:35:36.472Z,35.30
2019-01-24T12:38:06.400Z,36.20
2019-01-24T12:40:36.181Z,34.93
2019-01-24T12:43:05.860Z,33.73
2019-01-24T12:45:36.720Z,33.40
2019-01-24T12:48:07.414Z,33.00
2019-01-24T12:50:36.989Z,34.73
2019-01-24T12:53:08.118Z,35.53
2019-01-24T12:55:37.680Z,33.60
2019-01-24T12:58:07.267Z,34.17
2019-01-24T13:00:38.689Z,35.37
2019-01-24T13:03:08.552Z,36.07
2019-01-24T13:05:38.322Z,36.93
2019-01-24T13:08:08.553Z,34.53
2019-01-24T13:10:37.967Z,34.07
2019-01-24T13:13:07.857Z,35.87
2019-01-24T13:15:37.662Z,33.37
2019-01-24T13:18:07.577Z,37.33
2019-01-24T13:20:37.069Z,35.80
2019-01-24T13:23:06.460Z,35.37
2019-01-24T13:25:36.949Z,35.87
2019-01-24T13:28:07.119Z,34.60
2019-01-24T13:30:36.579Z,36.33
2019-01-24T13:33:07.149Z,36.87
2019-01-24T13:35:37.201Z,37.03
2019-01-24T13:38:07.493Z,35.03
2019-01-24T13:40:37.158Z,34.10
2019-01-24T13:43:07.887Z,35.80
2019-01-24T13:45:39.512Z,36.80
2019-01-24T13:48:09.426Z,35.47
2019-01-24T13:50:39.238Z,36.17
2019-01-24T13:53:08.929Z,36.37
2019-01-24T13:55:39.413Z,35.57
2019-01-24T13:58:09.267Z,34.40
2019-01-24T14:00:40.130Z,35.13
2019-01-24T14:03:19.257Z,36.83
2019-01-24T14:05:48.716Z,35.90
2019-01-24T14:08:18.085Z,35.57
2019-01-24T14:10:47.457Z,33.60
2019-01-24T14:13:16.852Z,35.30
2019-01-24T14:15:46.241Z,37.27
2019-01-24T14:18:16.564Z,38.80
2019-01-24T14:20:46.026Z,36.53
2019-01-24T14:23:15.791Z,34.90
2019-01-24T14:25:45.175Z,37.80
2019-01-24T14:28:14.636Z,36.27
2019-01-24T14:30:44.001Z,38.03
2019-01-24T14:33:13.734Z,36.93
2019-01-24T14:35:43.182Z,35.57
2019-01-24T14:38:12.657Z,36.43
2019-01-24T14:40:42.025Z,36.47
2019-01-24T14:43:11.498Z,36.23
2019-01-24T14:45:41.050Z,35.87
2019-01-24T14:48:10.613Z,35.27
2019-01-24T14:50:40.077Z,34.03
2019-01-24T14:53:09.520Z,33.27
2019-01-24T14:55:38.983Z,35.23
2019-01-24T14:58:08.393Z,33.97
2019-01-24T15:00:58.684Z,35.43
2019-01-24T15:03:28.063Z,35.20
2019-01-24T15:06:00.629Z,35.10
2019-01-24T15:08:30.013Z,34.80
2019-01-24T15:10:59.418Z,35.80
2019-01-24T15:13:28.883Z,34.87
2019-01-24T15:15:58.297Z,35.00
2019-01-24T15:18:27.761Z,35.03
2019-01-24T15:20:57.206Z,33.77
2019-01-24T15:23:26.986Z,34.27
2019-01-24T15:25:56.902Z,35.30
2019-01-24T15:28:26.440Z,32.77
2019-01-24T15:30:56.117Z,34.43
2019-01-24T15:33:25.656Z,34.93
2019-01-24T15:35:55.775Z,35.03
2019-01-24T15:38:25.229Z,34.93
2019-01-24T15:40:55.082Z,33.40
2019-01-24T15:43:24.477Z,35.40
2019-01-24T15:45:54.552Z,34.77
2019-01-24T15:48:24.004Z,34.13
2019-01-24T15:50:53.693Z,35.20
2019-01-24T15:53:23.244Z,33.97
2019-01-24T15:55:52.714Z,35.17
2019-01-24T15:58:22.210Z,35.13
2019-01-24T16:00:51.578Z,42.07
2019-01-24T16:03:21.373Z,37.43
2019-01-24T16:05:51.137Z,37.00
2019-01-24T16:08:20.575Z,39.23
2019-01-24T16:10:50.046Z,35.03
2019-01-24T16:13:19.564Z,37.80
2019-01-24T16:15:49.116Z,36.43
2019-01-24T16:18:18.494Z,35.83
2019-01-24T16:20:48.171Z,37.30
2019-01-24T16:23:17.981Z,36.53
2019-01-24T16:25:47.880Z,34.23
2019-01-24T16:28:24.456Z,35.50
2019-01-24T16:30:48.684Z,35.33
2019-01-24T16:33:18.163Z,34.07
2019-01-24T16:35:47.958Z,35.13
2019-01-24T16:38:17.485Z,35.17
2019-01-24T16:40:46.960Z,35.67
2019-01-24T16:43:16.337Z,36.97
2019-01-24T16:45:45.819Z,36.93
2019-01-24T16:48:15.613Z,33.50
2019-01-24T16:50:45.079Z,33.27
2019-01-24T16:53:14.441Z,32.27
2019-01-24T16:55:43.842Z,33.77
2019-01-24T16:58:13.557Z,34.60
2019-01-24T17:01:14.545Z,34.63
2019-01-24T17:03:44.271Z,34.17
2019-01-24T17:06:13.790Z,32.93
2019-01-24T17:08:43.624Z,34.00
2019-01-24T17:11:13.395Z,36.37
2019-01-24T17:13:42.878Z,36.83
2019-01-24T17:16:12.613Z,34.73
2019-01-24T17:18:42.001Z,38.40
2019-01-24T17:21:11.368Z,36.23
2019-01-24T17:23:40.782Z,36.20
2019-01-24T17:26:10.641Z,35.70
2019-01-24T17:28:40.133Z,36.97
2019-01-24T17:31:09.586Z,34.77
2019-01-24T17:33:39.038Z,33.80
2019-01-24T17:36:08.528Z,35.83
2019-01-24T17:38:37.985Z,37.00
2019-01-24T17:41:07.357Z,35.87
2019-01-24T17:43:36.753Z,37.77
2019-01-24T17:46:06.277Z,38.50
2019-01-24T17:48:36.092Z,35.83
2019-01-24T17:51:05.701Z,35.57
2019-01-24T17:53:35.098Z,37.47
2019-01-24T17:56:04.957Z,35.87
2019-01-24T17:58:34.641Z,36.37
2019-01-24T18:01:04.543Z,36.03
2019-01-24T18:03:33.948Z,35.80
2019-01-24T18:06:03.353Z,34.83
2019-01-24T18:08:33.152Z,34.57
2019-01-24T18:11:02.640Z,35.20
2019-01-24T18:13:32.101Z,32.93
2019-01-24T18:16:01.488Z,36.07
2019-01-24T18:18:31.269Z,35.37
2019-01-24T18:21:00.726Z,34.77
2019-01-24T18:23:30.093Z,33.67
2019-01-24T18:25:59.481Z,35.23
2019-01-24T18:28:28.963Z,34.57
2019-01-24T18:30:58.801Z,33.87
2019-01-24T18:33:28.584Z,36.20
2019-01-24T18:35:58.387Z,36.17
2019-01-24T18:38:27.772Z,38.13
2019-01-24T18:40:57.537Z,36.10
2019-01-24T18:43:28.067Z,39.10
2019-01-24T18:46:00.041Z,37.00
2019-01-24T18:48:29.556Z,36.07
2019-01-24T18:50:59.032Z,33.83
2019-01-24T18:53:28.556Z,35.30
2019-01-24T18:55:58.283Z,35.83
2019-01-24T18:58:27.753Z,35.80
2019-01-24T19:00:57.118Z,36.50
2019-01-24T19:03:26.596Z,34.63
2019-01-24T19:05:56.004Z,36.50
2019-01-24T19:08:25.526Z,35.90
2019-01-24T19:10:54.962Z,35.33
2019-01-24T19:13:24.796Z,34.60
2019-01-24T19:15:54.610Z,36.47
2019-01-24T19:18:24.000Z,37.80
2019-01-24T19:20:53.721Z,37.03
2019-01-24T19:23:23.541Z,35.53
2019-01-24T19:25:53.055Z,34.60
2019-01-24T19:28:22.460Z,38.47
2019-01-24T19:30:52.421Z,35.83
2019-01-24T19:33:21.895Z,35.77
2019-01-24T19:35:51.259Z,35.47
2019-01-24T19:38:20.982Z,35.07
2019-01-24T19:40:50.445Z,35.57
2019-01-24T19:43:19.831Z,34.73
2019-01-24T19:45:49.557Z,36.83
2019-01-24T19:48:18.940Z,34.37
2019-01-24T19:50:48.323Z,36.97
2019-01-24T19:53:18.643Z,34.57
2019-01-24T19:55:48.146Z,35.30
2019-01-24T19:58:17.505Z,34.87
2019-01-24T20:00:46.932Z,34.73
2019-01-24T20:03:16.646Z,37.07
2019-01-24T20:05:46.461Z,38.30
2019-01-24T20:08:15.976Z,34.83
2019-01-24T20:10:45.772Z,36.50
2019-01-24T20:13:15.174Z,36.97
2019-01-24T20:15:44.849Z,36.73
2019-01-24T20:18:14.418Z,36.57
2019-01-24T20:20:44.516Z,35.40
2019-01-24T20:23:14.332Z,36.57
2019-01-24T20:25:43.984Z,38.70
2019-01-24T20:28:13.744Z,38.53
2019-01-24T20:30:43.407Z,35.30
2019-01-24T20:33:12.984Z,37.10
2019-01-24T20:35:54.967Z,36.97
2019-01-24T20:38:24.436Z,37.70
2019-01-24T20:40:54.183Z,37.10
2019-01-24T20:43:23.808Z,35.13
2019-01-24T20:45:53.287Z,36.87
2019-01-24T20:48:23.073Z,37.43
2019-01-24T20:50:52.477Z,35.27
2019-01-24T20:53:21.921Z,34.13
2019-01-24T20:55:51.724Z,37.07
2019-01-24T20:58:21.438Z,35.73
2019-01-24T21:00:50.824Z,37.87
2019-01-24T21:03:20.214Z,36.90
2019-01-24T21:05:49.688Z,37.50
2019-01-24T21:08:19.124Z,36.87
2019-01-24T21:10:48.495Z,36.77
2019-01-24T21:13:17.917Z,35.97
2019-01-24T21:15:47.378Z,34.13
2019-01-24T21:18:16.951Z,37.67
2019-01-24T21:20:46.332Z,36.07
2019-01-24T21:23:15.768Z,35.13
2019-01-24T21:25:45.216Z,34.97
2019-01-24T21:28:14.672Z,35.60
2019-01-24T21:30:44.142Z,35.67
2019-01-24T21:33:13.600Z,35.17
2019-01-24T21:35:43.068Z,35.40
2019-01-24T21:38:12.524Z,35.87
2019-01-24T21:40:41.897Z,34.80
2019-01-24T21:43:11.717Z,35.93
2019-01-24T21:45:41.357Z,34.70
2019-01-24T21:48:10.934Z,35.27
2019-01-24T21:50:40.377Z,36.13
2019-01-24T21:53:09.832Z,34.63
2019-01-24T21:55:39.303Z,34.53
2019-01-24T21:58:09.564Z,35.80
2019-01-24T22:00:39.482Z,36.20
2019-01-24T22:03:09.033Z,34.47
2019-01-24T22:05:38.484Z,37.33
2019-01-24T22:08:07.997Z,34.83
2019-01-24T22:10:37.381Z,36.47
2019-01-24T22:13:07.062Z,36.50
2019-01-24T22:15:36.837Z,35.13
2019-01-24T22:18:07.208Z,36.77
2019-01-24T22:20:36.682Z,34.53
2019-01-24T22:23:06.452Z,35.60
2019-01-24T22:25:36.820Z,36.17
2019-01-24T22:28:07.396Z,34.73
2019-01-24T22:30:44.568Z,36.57
2019-01-24T22:33:13.970Z,34.30
2019-01-24T22:35:43.721Z,35.53
2019-01-24T22:38:13.529Z,35.80
2019-01-24T22:40:42.923Z,36.27
2019-01-24T22:43:12.304Z,35.07
2019-01-24T22:45:41.784Z,34.97
2019-01-24T22:48:11.237Z,36.23
2019-01-24T22:50:40.620Z,36.30
2019-01-24T22:53:09.972Z,36.73
2019-01-24T22:55:39.328Z,34.57
2019-01-24T22:58:09.112Z,35.07
2019-01-24T23:01:02.168Z,35.00
2019-01-24T23:03:54.580Z,35.67
2019-01-24T23:06:24.373Z,33.87
2019-01-24T23:08:53.745Z,35.30
2019-01-24T23:11:23.672Z,36.10
2019-01-24T23:13:53.052Z,34.57
2019-01-24T23:16:22.448Z,37.37
2019-01-24T23:18:51.892Z,38.17
2019-01-24T23:21:21.727Z,36.53
2019-01-24T23:23:51.236Z,36.23
2019-01-24T23:26:20.934Z,36.30
2019-01-24T23:28:50.429Z,36.27
2019-01-24T23:31:20.144Z,36.60
2019-01-24T23:33:50.160Z,36.73
2019-01-24T23:36:19.827Z,35.97
2019-01-24T23:38:49.280Z,36.70
2019-01-24T23:41:18.653Z,36.80
2019-01-24T23:43:48.038Z,35.60
2019-01-24T23:46:17.861Z,36.87
2019-01-24T23:48:47.252Z,37.07
2019-01-24T23:51:17.013Z,37.30
2019-01-24T23:53:46.469Z,35.53
2019-01-24T23:56:16.537Z,37.17
2019-01-24T23:58:46.088Z,34.63
